Terminal Aerodrome Forecast
Issued by NWS Glasgow, MT

Home | Current Version | Previous Version | Text Only | Print | Product List | Glossary On
Versions: 1 2 3 4 5 6 7 8 9 10 11 12 13 14 15 16
642
FTUS45 KGGW 091128
TAFGGW
TAF
KGGW 091128Z 0912/1012 08006KT P6SM BKN015
     FM092000 10007KT P6SM BKN035
     FM100500 10010KT P6SM OVC025=

USA.gov is the U.S. government's official web portal to all federal, state and local government web resources and services.